LOWG METAR and TAF | Updated Today

LOWG METAR

Graz Airport

Observation time: 6 min. ago

LOWG 051950Z VRB02KT CAVOK M04/M09 Q1034 NOSIG

Need help? Read our tutorial on how to read METARs or read the parsed version below.

Graz Airport (LOWG) METAR

  • Weather conditions on Sun, 05 Feb 2023 19:50:00 +0000 (6 min. ago):
  • Present conditions: Dry
  • Clouds: Clear skies
  • Visibility: Greater than 10 km
  • Wind: Variable at 2 knots
  • Temperature: -4 celsius
  • Dew point: -9 celsius
  • Pressure: 1034 millibars
  • Remarks: None


Useful to know...

LOWG TAF

Graz Airport

TAF LOWG 051715Z 0518/0618 VRB04KT CAVOK TXM01/0614Z TNM08/0605Z
Observation time: 2:41 hr. ago
Need help? Read our tutorial on how to read TAFs or read the parsed version below.

Parsed version of TAF for Graz Airport (LOWG)

  • From 05 February at 18:00 UTC, to day 06 of the month at 18:00 UTC
  • Visibility: Greater than 10 km
  • Wind: Variable at 4